Latest Weather Observations for Double Island Point

IDQ60901

Issued at 6:25 pm EST Thursday 24 April 2014 (issued every 10 minutes, with the page automatically refreshed every 10 minutes)

About weather observations | Map of Brisbane area stations | Latest observations for Brisbane area | Other Formats
Station Details ID: 040068 Name: DOUBLE ISLAND POINT LIGHTHOUSE Lat: -25.93 Lon: 153.19 Height: 95.64 m
Data from the previous 72 hours. | See also: Recent months at Double Island Point
Date/Time
EST
Tmp

°C
App
Tmp
°C
Dew
Point
°C
Rel
Hum
%
Delta-T

°C
Wind Press
QNH
hPa
Press
MSL
hPa
Rain
since
9 am
mm
Dir
 
Spd
km/h
Gust
km/h
Spd
kts
Gust
kts
24/06:00pm 22.7 20.8 17.6 73 3.2 ESE 24 30 13 16 1014.9 1014.5 0.2
24/05:30pm 22.7 21.4 17.2 71 3.4 ESE 20 24 11 13 1014.8 - 0.2
24/05:00pm 22.9 20.2 16.7 68 3.8 SE 26 30 14 16 1014.5 - 0.2
24/04:30pm 23.4 21.5 15.2 60 4.9 SE 19 28 10 15 1014.7 - 0.2
24/04:00pm 23.5 21.2 15.8 62 4.7 SE 22 26 12 14 1014.2 - 0.2
24/03:30pm 23.6 21.4 15.9 62 4.7 SE 22 24 12 13 1014.0 - 0.2
24/03:00pm 23.5 21.1 17.3 68 3.8 SE 26 30 14 16 1014.0 1013.6 0.2
24/02:30pm 23.6 21.2 18.3 72 3.3 SE 28 32 15 17 1014.1 - 0.2
24/02:00pm 23.7 21.4 17.7 69 3.8 SE 26 28 14 15 1014.2 - 0.2
24/01:30pm 23.7 22.0 19.0 75 3.0 SSE 26 30 14 16 1014.5 - 0.2
24/01:00pm 23.1 21.0 17.1 69 3.7 S 24 30 13 16 1014.6 - 0.2
24/12:30pm 23.1 21.0 18.0 73 3.2 S 26 32 14 17 1015.2 - 0.2
24/12:00pm 22.7 20.2 17.2 71 3.4 S 26 32 14 17 1015.8 1015.4 0.2
24/11:30am 22.5 20.4 17.2 72 3.3 S 24 32 13 17 1016.5 - 0.2
24/11:00am 22.0 21.0 18.0 78 2.5 S 20 26 11 14 1016.9 - 0.2
24/10:30am 22.2 21.0 18.4 79 2.4 S 22 30 12 16 1017.2 - 0.0
24/10:00am 22.4 21.0 18.8 80 2.3 S 24 30 13 16 1017.2 - 0.0
24/09:30am 22.0 19.7 18.4 80 2.3 S 28 35 15 19 1016.8 - 0.0
24/09:00am 21.9 20.1 18.7 82 2.0 SSE 26 33 14 18 1016.7 1016.4 4.0
24/08:30am 21.5 19.2 18.5 83 1.9 SSE 28 35 15 19 1016.6 - 4.0
24/08:00am 20.8 18.9 18.6 87 1.4 SSW 26 30 14 16 1017.1 - 4.0
24/07:30am 21.2 19.0 18.6 85 1.6 S 28 37 15 20 1016.5 - 4.0
24/07:00am 20.5 19.6 18.1 86 1.5 S 20 26 11 14 1016.3 - 4.0
24/06:30am 20.7 20.5 18.5 87 1.4 S 17 20 9 11 1016.1 - 4.0
24/06:00am 20.6 18.9 17.2 81 2.1 S 22 28 12 15 1015.9 1015.5 1.8
24/05:30am 21.0 18.8 17.0 78 2.4 SSW 24 30 13 16 1015.2 - 1.4
24/05:00am 21.2 19.5 17.2 78 2.5 S 22 28 12 15 1014.8 - 1.4
24/04:30am 22.5 22.0 17.8 75 2.9 ESE 17 20 9 11 1015.0 - 1.4
24/04:00am 22.8 22.2 17.5 72 3.3 ESE 17 20 9 11 1014.8 - 1.4
24/03:30am 22.5 22.0 16.8 70 3.5 E 15 17 8 9 1014.9 - 1.4
24/03:00am 22.9 22.4 16.9 69 3.7 E 15 17 8 9 1015.3 1014.9 1.4
24/02:30am 23.1 22.4 17.3 70 3.6 E 17 20 9 11 1015.5 - 1.4
24/02:00am 22.8 23.2 17.3 71 3.4 E 11 15 6 8 1015.8 - 1.4
24/01:30am 23.0 22.9 17.0 69 3.7 ESE 13 17 7 9 1015.8 - 1.4
24/01:00am 23.0 22.9 17.0 69 3.7 E 13 15 7 8 1016.2 - 1.4
24/12:30am 22.9 22.7 17.6 72 3.3 E 15 17 8 9 1016.4 - 1.4
24/12:00am 22.4 23.2 18.2 77 2.6 S 11 15 6 8 1016.6 1016.3 1.4
 
Date/Time
EST
Tmp

°C
App
Tmp
°C
Dew
Point
°C
Rel
Hum
%
Delta-T

°C
Wind Press
QNH
hPa
Press
MSL
hPa
Rain
since
9 am
mm
Dir
 
Spd
km/h
Gust
km/h
Spd
kts
Gust
kts
23/11:30pm 22.1 23.2 17.9 77 2.6 S 9 13 5 7 1016.9 - 1.4
23/11:00pm 22.0 22.3 18.0 78 2.5 S 13 17 7 9 1017.2 - 1.4
23/10:30pm 22.4 22.7 17.8 75 2.9 S 13 17 7 9 1017.3 - 1.4
23/10:00pm 23.0 22.5 17.0 69 3.7 E 15 19 8 10 1017.5 - 1.4
23/09:30pm 23.0 22.6 17.2 70 3.6 E 15 17 8 9 1017.8 - 1.4
23/09:00pm 23.1 22.4 16.4 66 4.1 ESE 15 20 8 11 1017.8 1017.5 1.4
23/08:30pm 23.0 22.3 16.3 66 4.1 ESE 15 20 8 11 1017.9 - 1.4
23/08:00pm 22.9 21.4 16.4 67 4.0 SE 19 20 10 11 1017.7 - 1.4
23/07:30pm 22.7 21.4 16.7 69 3.7 SE 19 22 10 12 1017.3 - 1.4
23/07:00pm 22.4 21.1 16.9 71 3.4 SSE 19 20 10 11 1017.1 - 1.4
23/06:30pm 22.2 20.9 17.3 74 3.0 SSE 20 24 11 13 1016.8 - 1.4
23/06:00pm 22.1 20.6 16.8 72 3.2 SSE 20 24 11 13 1016.8 1016.5 1.4
23/05:30pm 21.8 19.4 16.5 72 3.2 SSE 24 30 13 16 1016.5 - 1.4
23/05:00pm 21.6 19.1 17.2 76 2.7 SE 26 30 14 16 1016.3 - 1.4
23/04:30pm 21.8 18.8 17.8 78 2.5 SE 30 33 16 18 1016.1 - 1.4
23/04:10pm 22.1 18.1 17.5 75 2.9 SE 35 39 19 21 1015.9 - 1.4
23/04:00pm 22.2 22.3 16.5 70 3.5 ESE 11 19 6 10 1016.0 - 1.4
23/03:30pm 22.0 22.6 15.8 68 3.7 N 7 13 4 7 1015.8 - 1.4
23/03:00pm 22.1 22.4 16.1 69 3.6 ENE 9 15 5 8 1016.0 1015.7 1.4
23/02:30pm 20.8 20.3 16.8 78 2.4 N 15 28 8 15 1016.4 - 1.2
23/02:00pm 22.9 20.9 16.4 67 4.0 N 22 32 12 17 1016.6 - 0.0
23/01:30pm 23.1 22.5 17.6 71 3.4 ENE 17 28 9 15 1016.7 - 0.0
23/01:00pm 23.3 22.0 17.3 69 3.7 NNE 20 28 11 15 1017.0 - 0.0
23/12:30pm 23.6 24.5 17.6 69 3.7 ESE 9 13 5 7 1017.2 - 0.0
23/12:00pm 24.2 22.8 17.0 64 4.5 ENE 20 28 11 15 1017.6 1017.3 0.0
23/11:30am 24.7 24.0 17.4 64 4.6 NE 17 24 9 13 1018.1 - 0.0
23/11:00am 25.3 25.1 17.7 62 4.8 NNE 15 20 8 11 1018.5 - 0.0
23/10:30am 24.9 25.0 18.3 66 4.2 NE 15 22 8 12 1018.7 - 0.0
23/10:00am 25.0 25.4 18.9 69 3.9 NNE 15 22 8 12 1018.6 - 0.0
23/09:30am 23.5 23.5 19.0 76 2.9 NNE 17 24 9 13 1019.0 - 0.0
23/09:00am 22.1 23.8 18.1 78 2.5 W 6 11 3 6 1019.2 1018.9 0.2
23/08:30am 21.9 22.8 17.5 76 2.7 E 9 17 5 9 1019.3 - 0.2
23/08:00am 22.0 22.4 17.2 74 3.0 SSE 11 19 6 10 1018.9 - 0.0
23/07:30am 21.6 21.6 17.2 76 2.7 NW 13 19 7 10 1018.7 - 0.0
23/07:00am 21.6 20.8 17.2 76 2.7 NW 17 24 9 13 1018.6 - 0.0
23/06:30am 23.2 22.1 16.3 65 4.2 NE 17 28 9 15 1018.7 - 0.0
23/06:00am 23.1 21.8 15.9 64 4.4 ENE 17 22 9 12 1018.3 1018.0 0.0
23/05:30am 22.9 22.1 16.0 65 4.2 NE 15 20 8 11 1018.2 - 0.0
23/05:00am 23.0 22.3 16.3 66 4.1 NE 15 19 8 10 1017.9 - 0.0
23/04:30am 22.9 22.2 15.5 63 4.5 NE 13 19 7 10 1018.0 - 0.0
23/04:00am 23.1 22.1 15.7 63 4.5 NE 15 20 8 11 1017.8 - 0.0
23/03:30am 23.0 21.7 15.8 64 4.4 NNE 17 24 9 13 1017.7 - 0.0
23/03:00am 23.1 22.6 15.9 64 4.4 NE 13 19 7 10 1017.8 1017.5 0.0
23/02:30am 23.1 21.6 15.4 62 4.6 NNE 17 20 9 11 1018.0 - 0.0
23/02:00am 23.2 22.2 15.5 62 4.6 NE 15 20 8 11 1018.2 - 0.0
23/01:30am 23.1 21.8 15.7 63 4.5 NE 17 22 9 12 1018.1 - 0.0
23/01:00am 23.3 21.5 15.9 63 4.5 NE 20 28 11 15 1018.3 - 0.0
23/12:30am 23.2 21.7 15.3 61 4.7 NE 17 24 9 13 1018.7 - 0.0
23/12:00am 23.2 22.0 16.0 64 4.4 NE 17 24 9 13 1018.8 1018.5 0.0
 
Date/Time
EST
Tmp

°C
App
Tmp
°C
Dew
Point
°C
Rel
Hum
%
Delta-T

°C
Wind Press
QNH
hPa
Press
MSL
hPa
Rain
since
9 am
mm
Dir
 
Spd
km/h
Gust
km/h
Spd
kts
Gust
kts
22/11:30pm 23.1 21.2 15.2 61 4.7 NE 19 24 10 13 1019.1 - 0.0
22/11:00pm 23.2 21.2 15.0 60 4.9 NE 19 26 10 14 1019.2 - 0.0
22/10:30pm 23.1 20.8 15.7 63 4.5 NE 22 28 12 15 1019.2 - 0.0
22/10:00pm 23.0 20.3 15.6 63 4.5 NE 24 33 13 18 1019.2 - 0.0
22/09:30pm 23.1 20.2 16.2 65 4.2 ENE 26 32 14 17 1019.5 - 0.0
22/09:00pm 23.2 21.0 16.0 64 4.4 ENE 22 26 12 14 1019.6 1019.3 0.0
22/08:30pm 23.1 21.6 16.2 65 4.2 ENE 19 24 10 13 1019.8 - 0.0
22/08:00pm 23.1 21.4 15.7 63 4.5 ENE 19 22 10 12 1019.8 - 0.0
22/07:30pm 23.0 21.6 15.6 63 4.5 E 17 20 9 11 1019.6 - 0.0
22/07:00pm 23.1 21.4 14.7 59 5.0 ENE 17 20 9 11 1019.5 - 0.0
22/06:30pm 23.1 21.8 14.7 59 5.0 ENE 15 19 8 10 1019.3 - 0.0
22/06:00pm 23.2 21.5 13.7 55 5.5 ENE 15 19 8 10 1019.2 1018.9 0.0
22/05:30pm 23.3 21.5 13.2 53 5.9 ENE 15 19 8 10 1018.9 - 0.0
22/05:00pm 23.7 21.6 13.6 53 5.9 ENE 17 20 9 11 1018.7 - 0.0
22/04:30pm 24.4 22.3 14.8 55 5.7 E 19 22 10 12 1018.5 - 0.0
22/04:00pm 24.6 23.1 15.2 55 5.7 E 17 20 9 11 1018.5 - 0.0
22/03:30pm 25.0 23.8 15.0 53 6.0 E 15 20 8 11 1018.6 - 0.0
22/03:00pm 25.3 24.0 14.7 51 6.3 E 15 19 8 10 1018.8 1018.5 0.0
22/02:30pm 25.7 24.0 14.8 51 6.6 E 17 20 9 11 1018.7 - 0.0
22/02:00pm 25.9 24.5 14.4 49 6.9 E 15 19 8 10 1018.8 - 0.0
22/01:30pm 26.2 24.7 13.0 44 7.7 E 13 15 7 8 1019.0 - 0.0
22/01:00pm 26.4 25.4 13.5 45 7.6 E 11 15 6 8 1019.3 - 0.0
22/12:30pm 26.3 24.7 12.7 43 7.9 E 13 17 7 9 1019.6 - 0.0
22/12:00pm 26.4 25.4 13.5 45 7.6 ESE 11 17 6 9 1020.1 1019.8 0.0
22/11:30am 26.8 25.7 13.2 43 8.0 E 11 13 6 7 1020.6 - 0.0
22/11:00am 26.8 25.8 13.5 44 7.9 E 11 13 6 7 1020.8 - 0.0
22/10:30am 27.2 25.6 13.9 44 7.9 ENE 15 19 8 10 1021.1 - 0.0
22/10:00am 26.6 24.3 13.0 43 8.0 E 17 20 9 11 1021.1 - 0.0
22/09:30am 26.8 25.3 14.2 46 7.5 E 15 17 8 9 1021.3 - 0.0
22/09:00am 25.2 25.0 16.6 59 5.3 SSE 13 17 7 9 1021.5 1021.2 0.0
22/08:30am 23.6 23.3 16.4 64 4.4 SSE 13 17 7 9 1021.6 - 0.0
22/08:00am 24.5 23.7 16.2 60 5.1 SE 15 19 8 10 1021.2 - 0.0
22/07:30am 22.7 21.4 15.8 65 4.2 ESE 17 20 9 11 1021.0 - 0.0
22/07:00am 23.1 21.8 15.9 64 4.4 ESE 17 20 9 11 1020.6 - 0.0
22/06:30am 22.0 20.9 15.4 66 4.0 ESE 15 19 8 10 1020.4 - 0.0
22/06:00am 21.8 21.7 14.9 65 4.1 ESE 9 15 5 8 1020.6 1020.3 0.0
22/05:30am 21.9 21.2 14.3 62 4.5 ENE 11 13 6 7 1020.2 - 0.0
22/05:00am 22.1 20.6 14.2 61 4.6 ENE 15 20 8 11 1020.0 - 0.0
22/04:30am 22.1 20.5 14.0 60 4.7 ENE 15 19 8 10 1019.9 - 0.0
22/04:00am 21.8 20.7 13.2 58 5.0 NE 11 15 6 8 1019.6 - 0.0
22/03:30am 22.0 20.6 13.4 58 5.0 NE 13 19 7 10 1019.5 - 0.0
22/03:00am 22.0 20.0 12.8 56 5.3 ENE 15 19 8 10 1019.7 1019.4 0.0
22/02:30am 22.0 20.3 12.3 54 5.5 NE 13 19 7 10 1019.8 - 0.0
22/02:00am 22.0 19.9 12.3 54 5.5 NE 15 20 8 11 1020.1 - 0.0
22/01:30am 22.3 19.1 12.0 52 5.8 NE 20 28 11 15 1020.0 - 0.0
22/01:00am 22.4 19.4 11.8 51 6.0 NE 19 26 10 14 1020.2 - 0.0
22/12:30am 22.2 20.0 12.2 53 5.7 NE 15 22 8 12 1020.4 - 0.0
22/12:00am 22.5 19.5 11.9 51 6.0 NE 19 26 10 14 1020.5 1020.2 0.0
 
Date/Time
EST
Tmp

°C
App
Tmp
°C
Dew
Point
°C
Rel
Hum
%
Delta-T

°C
Wind Press
QNH
hPa
Press
MSL
hPa
Rain
since
9 am
mm
Dir
 
Spd
km/h
Gust
km/h
Spd
kts
Gust
kts
21/11:30pm 22.5 19.7 12.7 54 5.6 ENE 19 28 10 15 1020.6 - 0.0
21/11:00pm 22.6 19.8 12.5 53 5.8 NE 19 26 10 14 1020.9 - 0.0
21/10:30pm 22.7 19.8 12.3 52 5.9 ENE 19 26 10 14 1020.9 - 0.0
21/10:00pm 22.9 19.4 12.2 51 6.1 ENE 22 28 12 15 1021.1 - 0.0
21/09:30pm 22.8 19.8 12.4 52 5.9 NE 20 28 11 15 1021.1 - 0.0
21/09:00pm 22.9 19.8 12.2 51 6.1 ENE 20 26 11 14 1021.0 1020.7 0.0
21/08:30pm 22.9 19.9 12.5 52 5.9 ENE 20 24 11 13 1020.9 - 0.0
21/08:00pm 22.9 20.3 13.1 54 5.7 ENE 19 24 10 13 1020.7 - 0.0
21/07:30pm 22.9 20.2 12.8 53 5.8 ENE 19 28 10 15 1020.5 - 0.0
21/07:00pm 23.0 19.9 13.5 55 5.5 ENE 22 28 12 15 1020.1 - 0.0
21/06:30pm 23.0 20.5 13.5 55 5.5 ENE 19 22 10 12 1019.7 - 0.0

Latest Capital City Observations: Canberra | Sydney | Melbourne | Brisbane | Adelaide | Perth | Hobart | Darwin

Other Formats:

Comma delimited format used in spreadsheet applications
http://www.bom.gov.au/fwo/IDQ60901/IDQ60901.94584.axf

JavaScript Object Notation format (JSON) in row-major order
http://www.bom.gov.au/fwo/IDQ60901/IDQ60901.94584.json